sensor_id;sensor_type;location;lat;lon;timestamp;temperature;humidity
15355;DHT22;7777;52.254;9.618;2023-05-08T03:50:56;7.60;99.90
15355;DHT22;7777;52.254;9.618;2023-05-08T03:53:22;7.60;99.90
15355;DHT22;7777;52.254;9.618;2023-05-08T03:55:48;7.60;99.90
15355;DHT22;7777;52.254;9.618;2023-05-08T03:58:25;7.60;99.90
15355;DHT22;7777;52.254;9.618;2023-05-08T04:01:11;7.70;99.90
15355;DHT22;7777;52.254;9.618;2023-05-08T04:09:38;7.70;99.90
15355;DHT22;7777;52.254;9.618;2023-05-08T04:12:30;7.70;99.90
15355;DHT22;7777;52.254;9.618;2023-05-08T04:15:18;7.80;99.90
15355;DHT22;7777;52.254;9.618;2023-05-08T04:17:53;7.80;99.90
15355;DHT22;7777;52.254;9.618;2023-05-08T04:20:25;7.80;99.90
15355;DHT22;7777;52.254;9.618;2023-05-08T04:22:55;7.80;99.90
15355;DHT22;7777;52.254;9.618;2023-05-08T04:25:22;7.80;99.90
15355;DHT22;7777;52.254;9.618;2023-05-08T04:27:48;7.90;99.90
15355;DHT22;7777;52.254;9.618;2023-05-08T04:30:19;7.90;99.90
15355;DHT22;7777;52.254;9.618;2023-05-08T04:32:46;7.90;99.90
15355;DHT22;7777;52.254;9.618;2023-05-08T04:35:12;7.90;99.90
15355;DHT22;7777;52.254;9.618;2023-05-08T04:37:40;8.00;99.90
15355;DHT22;7777;52.254;9.618;2023-05-08T04:40:08;8.00;99.90
15355;DHT22;7777;52.254;9.618;2023-05-08T04:42:35;8.00;99.90
15355;DHT22;7777;52.254;9.618;2023-05-08T04:45:03;8.10;99.90
15355;DHT22;7777;52.254;9.618;2023-05-08T04:47:30;8.10;99.90
15355;DHT22;7777;52.254;9.618;2023-05-08T04:49:57;8.10;99.90
15355;DHT22;7777;52.254;9.618;2023-05-08T04:52:23;8.10;99.90
15355;DHT22;7777;52.254;9.618;2023-05-08T04:54:49;8.10;99.90
15355;DHT22;7777;52.254;9.618;2023-05-08T04:57:15;8.20;99.90
15355;DHT22;7777;52.254;9.618;2023-05-08T04:59:41;8.20;99.90
15355;DHT22;7777;52.254;9.618;2023-05-08T05:02:07;8.20;99.90
15355;DHT22;7777;52.254;9.618;2023-05-08T05:04:36;8.30;99.90
15355;DHT22;7777;52.254;9.618;2023-05-08T05:07:02;8.30;99.90
15355;DHT22;7777;52.254;9.618;2023-05-08T05:09:28;8.30;99.90
15355;DHT22;7777;52.254;9.618;2023-05-08T05:11:55;8.30;99.90
15355;DHT22;7777;52.254;9.618;2023-05-08T05:14:21;8.30;99.90
15355;DHT22;7777;52.254;9.618;2023-05-08T05:16:46;8.30;99.90
15355;DHT22;7777;52.254;9.618;2023-05-08T05:19:12;8.40;99.90
15355;DHT22;7777;52.254;9.618;2023-05-08T05:21:38;8.30;99.90
15355;DHT22;7777;52.254;9.618;2023-05-08T05:24:05;8.30;99.90
15355;DHT22;7777;52.254;9.618;2023-05-08T05:26:31;8.40;99.90
15355;DHT22;7777;52.254;9.618;2023-05-08T05:28:57;8.40;99.90
15355;DHT22;7777;52.254;9.618;2023-05-08T05:31:23;8.40;99.90
15355;DHT22;7777;52.254;9.618;2023-05-08T05:33:49;8.40;99.90
15355;DHT22;7777;52.254;9.618;2023-05-08T05:36:14;8.50;99.90
15355;DHT22;7777;52.254;9.618;2023-05-08T05:38:40;8.50;99.90
15355;DHT22;7777;52.254;9.618;2023-05-08T05:41:06;8.50;99.90
15355;DHT22;7777;52.254;9.618;2023-05-08T05:43:32;8.50;99.90
15355;DHT22;7777;52.254;9.618;2023-05-08T05:46:05;8.60;99.90
15355;DHT22;7777;52.254;9.618;2023-05-08T05:48:31;8.60;99.90
15355;DHT22;7777;52.254;9.618;2023-05-08T05:50:57;8.60;99.90
15355;DHT22;7777;52.254;9.618;2023-05-08T05:53:22;8.60;99.90
15355;DHT22;7777;52.254;9.618;2023-05-08T05:55:48;8.70;99.90
15355;DHT22;7777;52.254;9.618;2023-05-08T05:58:14;8.70;99.90
15355;DHT22;7777;52.254;9.618;2023-05-08T06:00:44;8.80;99.90
15355;DHT22;7777;52.254;9.618;2023-05-08T06:03:12;8.80;99.90
15355;DHT22;7777;52.254;9.618;2023-05-08T06:05:38;8.90;99.90
15355;DHT22;7777;52.254;9.618;2023-05-08T06:08:05;8.90;99.90
15355;DHT22;7777;52.254;9.618;2023-05-08T06:10:32;9.00;99.90
15355;DHT22;7777;52.254;9.618;2023-05-08T06:12:58;9.10;99.90
15355;DHT22;7777;52.254;9.618;2023-05-08T06:15:24;9.10;99.90
15355;DHT22;7777;52.254;9.618;2023-05-08T06:17:50;9.10;99.90
15355;DHT22;7777;52.254;9.618;2023-05-08T06:20:17;9.20;99.90
15355;DHT22;7777;52.254;9.618;2023-05-08T06:22:42;9.20;99.90
15355;DHT22;7777;52.254;9.618;2023-05-08T06:25:09;9.30;99.90
15355;DHT22;7777;52.254;9.618;2023-05-08T06:27:35;9.40;99.90
15355;DHT22;7777;52.254;9.618;2023-05-08T06:30:02;9.40;99.90
15355;DHT22;7777;52.254;9.618;2023-05-08T06:32:29;9.50;99.90
15355;DHT22;7777;52.254;9.618;2023-05-08T06:34:55;9.50;99.90
15355;DHT22;7777;52.254;9.618;2023-05-08T06:37:24;9.60;99.90
15355;DHT22;7777;52.254;9.618;2023-05-08T06:39:49;9.70;99.90
15355;DHT22;7777;52.254;9.618;2023-05-08T06:42:15;9.70;99.90
15355;DHT22;7777;52.254;9.618;2023-05-08T06:44:41;9.80;99.90
15355;DHT22;7777;52.254;9.618;2023-05-08T06:47:07;9.90;99.90
15355;DHT22;7777;52.254;9.618;2023-05-08T06:49:34;10.00;99.90
15355;DHT22;7777;52.254;9.618;2023-05-08T06:52:01;10.00;99.90
15355;DHT22;7777;52.254;9.618;2023-05-08T06:54:27;10.10;99.90
15355;DHT22;7777;52.254;9.618;2023-05-08T06:56:53;10.20;99.90
15355;DHT22;7777;52.254;9.618;2023-05-08T06:59:20;10.30;99.90
15355;DHT22;7777;52.254;9.618;2023-05-08T07:01:49;10.30;99.90
15355;DHT22;7777;52.254;9.618;2023-05-08T07:04:15;10.40;99.90
15355;DHT22;7777;52.254;9.618;2023-05-08T07:06:41;10.50;99.90
15355;DHT22;7777;52.254;9.618;2023-05-08T07:09:07;10.60;99.90
15355;DHT22;7777;52.254;9.618;2023-05-08T07:11:34;10.70;99.90
15355;DHT22;7777;52.254;9.618;2023-05-08T07:13:59;10.80;99.90
15355;DHT22;7777;52.254;9.618;2023-05-08T07:16:25;10.90;99.90
15355;DHT22;7777;52.254;9.618;2023-05-08T07:18:51;11.00;99.90
15355;DHT22;7777;52.254;9.618;2023-05-08T07:21:17;11.10;99.90
15355;DHT22;7777;52.254;9.618;2023-05-08T07:23:44;11.20;99.90
15355;DHT22;7777;52.254;9.618;2023-05-08T07:26:10;11.30;99.90
15355;DHT22;7777;52.254;9.618;2023-05-08T07:28:36;11.40;99.90
15355;DHT22;7777;52.254;9.618;2023-05-08T07:31:05;11.50;99.90
15355;DHT22;7777;52.254;9.618;2023-05-08T07:33:34;11.60;99.90
15355;DHT22;7777;52.254;9.618;2023-05-08T07:36:00;11.60;99.90
15355;DHT22;7777;52.254;9.618;2023-05-08T07:38:26;11.70;99.90
15355;DHT22;7777;52.254;9.618;2023-05-08T07:40:51;11.80;99.90
15355;DHT22;7777;52.254;9.618;2023-05-08T07:43:22;11.90;99.90
15355;DHT22;7777;52.254;9.618;2023-05-08T07:45:48;12.00;99.90
15355;DHT22;7777;52.254;9.618;2023-05-08T07:48:14;12.10;99.90
15355;DHT22;7777;52.254;9.618;2023-05-08T07:50:40;12.20;99.90
15355;DHT22;7777;52.254;9.618;2023-05-08T07:53:05;12.30;99.90
15355;DHT22;7777;52.254;9.618;2023-05-08T07:55:31;12.30;99.90
15355;DHT22;7777;52.254;9.618;2023-05-08T07:57:57;12.40;99.90
15355;DHT22;7777;52.254;9.618;2023-05-08T08:00:23;12.40;99.90
15355;DHT22;7777;52.254;9.618;2023-05-08T08:02:52;12.50;99.90
15355;DHT22;7777;52.254;9.618;2023-05-08T08:05:18;12.60;99.90
15355;DHT22;7777;52.254;9.618;2023-05-08T08:07:44;12.70;99.90
15355;DHT22;7777;52.254;9.618;2023-05-08T08:10:12;12.80;99.90
15355;DHT22;7777;52.254;9.618;2023-05-08T08:12:38;12.90;99.90
15355;DHT22;7777;52.254;9.618;2023-05-08T08:15:04;13.00;99.90
15355;DHT22;7777;52.254;9.618;2023-05-08T08:17:30;13.10;99.90
15355;DHT22;7777;52.254;9.618;2023-05-08T08:19:56;13.10;99.90
15355;DHT22;7777;52.254;9.618;2023-05-08T08:22:23;13.20;99.90
15355;DHT22;7777;52.254;9.618;2023-05-08T08:24:50;13.30;99.90
15355;DHT22;7777;52.254;9.618;2023-05-08T08:27:15;13.30;99.90
15355;DHT22;7777;52.254;9.618;2023-05-08T08:29:41;13.40;99.90
15355;DHT22;7777;52.254;9.618;2023-05-08T08:32:07;13.50;99.90
15355;DHT22;7777;52.254;9.618;2023-05-08T08:34:34;13.50;99.90
15355;DHT22;7777;52.254;9.618;2023-05-08T08:37:00;13.60;99.90
15355;DHT22;7777;52.254;9.618;2023-05-08T08:39:26;13.60;99.90
15355;DHT22;7777;52.254;9.618;2023-05-08T08:41:52;13.70;99.90
15355;DHT22;7777;52.254;9.618;2023-05-08T08:44:17;13.70;99.90
15355;DHT22;7777;52.254;9.618;2023-05-08T08:46:49;13.80;99.90
15355;DHT22;7777;52.254;9.618;2023-05-08T08:49:18;13.90;99.90
15355;DHT22;7777;52.254;9.618;2023-05-08T08:51:53;14.00;99.90
15355;DHT22;7777;52.254;9.618;2023-05-08T08:54:23;14.10;99.90
15355;DHT22;7777;52.254;9.618;2023-05-08T08:56:49;14.20;99.90
15355;DHT22;7777;52.254;9.618;2023-05-08T08:59:17;14.30;99.90
15355;DHT22;7777;52.254;9.618;2023-05-08T09:02:12;14.30;99.90
15355;DHT22;7777;52.254;9.618;2023-05-08T09:04:42;14.50;99.90
15355;DHT22;7777;52.254;9.618;2023-05-08T09:07:10;14.60;99.90
15355;DHT22;7777;52.254;9.618;2023-05-08T09:09:38;14.70;99.90
15355;DHT22;7777;52.254;9.618;2023-05-08T09:12:08;14.70;99.90
15355;DHT22;7777;52.254;9.618;2023-05-08T09:14:34;14.80;99.90
15355;DHT22;7777;52.254;9.618;2023-05-08T09:17:00;14.80;99.90
15355;DHT22;7777;52.254;9.618;2023-05-08T09:19:27;14.90;99.90
15355;DHT22;7777;52.254;9.618;2023-05-08T09:21:54;15.00;99.90
15355;DHT22;7777;52.254;9.618;2023-05-08T09:24:20;15.20;99.90
15355;DHT22;7777;52.254;9.618;2023-05-08T09:26:47;15.30;99.90
15355;DHT22;7777;52.254;9.618;2023-05-08T09:31:43;15.40;99.90
15355;DHT22;7777;52.254;9.618;2023-05-08T09:34:21;15.50;99.90
15355;DHT22;7777;52.254;9.618;2023-05-08T09:36:52;15.70;99.90
15355;DHT22;7777;52.254;9.618;2023-05-08T09:39:37;15.80;99.90
15355;DHT22;7777;52.254;9.618;2023-05-08T09:42:05;16.00;99.90
15355;DHT22;7777;52.254;9.618;2023-05-08T09:44:44;16.10;99.90
15355;DHT22;7777;52.254;9.618;2023-05-08T09:47:14;16.30;99.90
15355;DHT22;7777;52.254;9.618;2023-05-08T09:52:30;16.50;99.90
15355;DHT22;7777;52.254;9.618;2023-05-08T09:57:27;16.80;99.90
15355;DHT22;7777;52.254;9.618;2023-05-08T10:00:03;16.90;99.90
15355;DHT22;7777;52.254;9.618;2023-05-08T10:02:31;17.00;99.90
15355;DHT22;7777;52.254;9.618;2023-05-08T10:04:58;17.10;99.90
15355;DHT22;7777;52.254;9.618;2023-05-08T10:07:31;17.30;99.90
15355;DHT22;7777;52.254;9.618;2023-05-08T10:10:00;17.30;99.90
15355;DHT22;7777;52.254;9.618;2023-05-08T10:12:28;17.40;99.90
15355;DHT22;7777;52.254;9.618;2023-05-08T10:14:54;17.50;99.90
15355;DHT22;7777;52.254;9.618;2023-05-08T10:17:48;17.70;99.90
15355;DHT22;7777;52.254;9.618;2023-05-08T10:20:34;17.80;99.90
15355;DHT22;7777;52.254;9.618;2023-05-08T10:23:13;17.80;99.90
15355;DHT22;7777;52.254;9.618;2023-05-08T10:25:47;18.00;99.90
15355;DHT22;7777;52.254;9.618;2023-05-08T10:31:06;18.30;99.90
15355;DHT22;7777;52.254;9.618;2023-05-08T10:33:33;18.40;99.90
15355;DHT22;7777;52.254;9.618;2023-05-08T10:36:00;18.50;99.90
15355;DHT22;7777;52.254;9.618;2023-05-08T10:38:26;18.60;99.90
15355;DHT22;7777;52.254;9.618;2023-05-08T10:40:52;18.80;99.90
15355;DHT22;7777;52.254;9.618;2023-05-08T10:43:23;18.80;99.90
15355;DHT22;7777;52.254;9.618;2023-05-08T10:45:51;19.00;99.90
15355;DHT22;7777;52.254;9.618;2023-05-08T10:48:38;19.00;99.90
15355;DHT22;7777;52.254;9.618;2023-05-08T10:54:18;19.30;99.90
15355;DHT22;7777;52.254;9.618;2023-05-08T10:56:48;19.40;99.90
15355;DHT22;7777;52.254;9.618;2023-05-08T10:59:19;19.40;99.90
15355;DHT22;7777;52.254;9.618;2023-05-08T11:01:49;19.60;99.90
15355;DHT22;7777;52.254;9.618;2023-05-08T11:04:21;19.70;99.90
15355;DHT22;7777;52.254;9.618;2023-05-08T11:06:49;19.90;99.90
15355;DHT22;7777;52.254;9.618;2023-05-08T11:12:27;20.10;99.90
15355;DHT22;7777;52.254;9.618;2023-05-08T11:15:05;20.20;99.90
15355;DHT22;7777;52.254;9.618;2023-05-08T11:17:32;20.20;99.90
15355;DHT22;7777;52.254;9.618;2023-05-08T11:20:03;20.20;99.90
15355;DHT22;7777;52.254;9.618;2023-05-08T11:22:31;20.30;99.90
15355;DHT22;7777;52.254;9.618;2023-05-08T11:25:15;20.30;99.90
15355;DHT22;7777;52.254;9.618;2023-05-08T11:30:24;20.30;99.90
15355;DHT22;7777;52.254;9.618;2023-05-08T11:35:57;20.40;99.40
15355;DHT22;7777;52.254;9.618;2023-05-08T11:41:33;20.50;99.60
15355;DHT22;7777;52.254;9.618;2023-05-08T11:47:10;20.70;99.90
15355;DHT22;7777;52.254;9.618;2023-05-08T11:49:30;20.80;99.90
15355;DHT22;7777;52.254;9.618;2023-05-08T11:51:58;20.70;99.50
15355;DHT22;7777;52.254;9.618;2023-05-08T11:54:25;20.70;99.70
15355;DHT22;7777;52.254;9.618;2023-05-08T11:56:54;20.80;99.00
15355;DHT22;7777;52.254;9.618;2023-05-08T11:59:22;20.80;99.90
15355;DHT22;7777;52.254;9.618;2023-05-08T12:01:49;20.90;99.30
15355;DHT22;7777;52.254;9.618;2023-05-08T12:04:15;21.00;99.90
15355;DHT22;7777;52.254;9.618;2023-05-08T12:06:41;21.10;99.90
15355;DHT22;7777;52.254;9.618;2023-05-08T12:09:12;21.20;99.80
15355;DHT22;7777;52.254;9.618;2023-05-08T12:11:40;21.20;99.90
15355;DHT22;7777;52.254;9.618;2023-05-08T12:14:08;21.10;98.90
15355;DHT22;7777;52.254;9.618;2023-05-08T12:16:38;21.20;99.60
15355;DHT22;7777;52.254;9.618;2023-05-08T12:19:09;21.30;99.50
15355;DHT22;7777;52.254;9.618;2023-05-08T12:21:36;21.40;99.30
15355;DHT22;7777;52.254;9.618;2023-05-08T12:24:20;21.40;98.80
15355;DHT22;7777;52.254;9.618;2023-05-08T12:26:54;21.50;98.50
15355;DHT22;7777;52.254;9.618;2023-05-08T12:29:20;21.40;98.30
15355;DHT22;7777;52.254;9.618;2023-05-08T12:31:47;21.50;98.00
15355;DHT22;7777;52.254;9.618;2023-05-08T12:34:13;21.40;97.50
15355;DHT22;7777;52.254;9.618;2023-05-08T12:36:38;21.50;97.90
15355;DHT22;7777;52.254;9.618;2023-05-08T12:39:22;21.50;98.30
15355;DHT22;7777;52.254;9.618;2023-05-08T12:41:51;21.50;97.60
15355;DHT22;7777;52.254;9.618;2023-05-08T12:44:23;21.60;99.00
15355;DHT22;7777;52.254;9.618;2023-05-08T12:46:55;21.70;99.00
15355;DHT22;7777;52.254;9.618;2023-05-08T12:49:29;21.80;98.60
15355;DHT22;7777;52.254;9.618;2023-05-08T12:52:04;21.90;98.10
15355;DHT22;7777;52.254;9.618;2023-05-08T12:54:32;21.90;97.80
15355;DHT22;7777;52.254;9.618;2023-05-08T12:57:20;21.90;98.40
15355;DHT22;7777;52.254;9.618;2023-05-08T12:59:47;21.80;97.10
15355;DHT22;7777;52.254;9.618;2023-05-08T13:02:17;21.80;97.50
15355;DHT22;7777;52.254;9.618;2023-05-08T13:04:45;21.90;97.40
15355;DHT22;7777;52.254;9.618;2023-05-08T13:07:11;21.90;97.30
15355;DHT22;7777;52.254;9.618;2023-05-08T13:09:38;22.00;97.20
15355;DHT22;7777;52.254;9.618;2023-05-08T13:12:04;22.00;96.80
15355;DHT22;7777;52.254;9.618;2023-05-08T13:14:33;22.00;97.00
15355;DHT22;7777;52.254;9.618;2023-05-08T13:16:59;22.00;97.30
15355;DHT22;7777;52.254;9.618;2023-05-08T13:19:30;22.10;97.20
15355;DHT22;7777;52.254;9.618;2023-05-08T13:21:56;22.00;97.10
15355;DHT22;7777;52.254;9.618;2023-05-08T13:24:22;22.00;96.80
15355;DHT22;7777;52.254;9.618;2023-05-08T13:26:48;22.10;97.10
15355;DHT22;7777;52.254;9.618;2023-05-08T13:29:14;22.10;96.90
15355;DHT22;7777;52.254;9.618;2023-05-08T13:31:40;22.00;97.20
15355;DHT22;7777;52.254;9.618;2023-05-08T13:34:05;22.20;98.10
15355;DHT22;7777;52.254;9.618;2023-05-08T13:36:31;22.30;97.10
15355;DHT22;7777;52.254;9.618;2023-05-08T13:38:57;22.30;96.50
15355;DHT22;7777;52.254;9.618;2023-05-08T13:41:23;22.30;97.00
15355;DHT22;7777;52.254;9.618;2023-05-08T13:43:48;22.30;96.70
15355;DHT22;7777;52.254;9.618;2023-05-08T13:46:14;22.30;97.30
15355;DHT22;7777;52.254;9.618;2023-05-08T13:48:40;22.40;97.00
15355;DHT22;7777;52.254;9.618;2023-05-08T13:51:06;22.40;96.80
15355;DHT22;7777;52.254;9.618;2023-05-08T13:53:31;22.40;96.80
15355;DHT22;7777;52.254;9.618;2023-05-08T13:55:57;22.30;96.80
15355;DHT22;7777;52.254;9.618;2023-05-08T13:58:23;22.30;96.20
15355;DHT22;7777;52.254;9.618;2023-05-08T14:00:49;22.30;96.20
15355;DHT22;7777;52.254;9.618;2023-05-08T14:03:14;22.20;96.00
15355;DHT22;7777;52.254;9.618;2023-05-08T14:05:40;22.10;96.70
15355;DHT22;7777;52.254;9.618;2023-05-08T14:08:06;22.20;96.10
15355;DHT22;7777;52.254;9.618;2023-05-08T14:10:32;22.20;96.30
15355;DHT22;7777;52.254;9.618;2023-05-08T14:12:57;22.20;96.20
15355;DHT22;7777;52.254;9.618;2023-05-08T14:15:23;22.10;96.30
15355;DHT22;7777;52.254;9.618;2023-05-08T14:17:49;22.20;96.70
15355;DHT22;7777;52.254;9.618;2023-05-08T14:20:14;22.20;96.50
15355;DHT22;7777;52.254;9.618;2023-05-08T14:22:40;22.20;96.50
15355;DHT22;7777;52.254;9.618;2023-05-08T14:25:07;22.20;96.60
15355;DHT22;7777;52.254;9.618;2023-05-08T14:27:33;22.20;96.70
15355;DHT22;7777;52.254;9.618;2023-05-08T14:29:58;22.20;96.50
15355;DHT22;7777;52.254;9.618;2023-05-08T14:32:24;22.10;96.40
15355;DHT22;7777;52.254;9.618;2023-05-08T14:34:50;22.10;96.40
15355;DHT22;7777;52.254;9.618;2023-05-08T14:37:16;22.10;96.10
15355;DHT22;7777;52.254;9.618;2023-05-08T14:39:42;22.10;96.10
15355;DHT22;7777;52.254;9.618;2023-05-08T14:42:09;22.00;96.30
15355;DHT22;7777;52.254;9.618;2023-05-08T14:44:35;22.00;96.10
15355;DHT22;7777;52.254;9.618;2023-05-08T14:47:01;21.90;95.90
15355;DHT22;7777;52.254;9.618;2023-05-08T14:49:27;21.80;96.20
15355;DHT22;7777;52.254;9.618;2023-05-08T14:51:54;21.80;95.70
15355;DHT22;7777;52.254;9.618;2023-05-08T14:54:22;21.70;96.10
15355;DHT22;7777;52.254;9.618;2023-05-08T14:56:48;21.70;96.90
15355;DHT22;7777;52.254;9.618;2023-05-08T14:59:14;21.70;96.60
15355;DHT22;7777;52.254;9.618;2023-05-08T15:01:43;21.60;96.10
15355;DHT22;7777;52.254;9.618;2023-05-08T15:04:09;21.50;96.20
15355;DHT22;7777;52.254;9.618;2023-05-08T15:06:36;21.50;96.20
15355;DHT22;7777;52.254;9.618;2023-05-08T15:09:08;21.40;96.00
15355;DHT22;7777;52.254;9.618;2023-05-08T15:11:35;21.40;96.60
15355;DHT22;7777;52.254;9.618;2023-05-08T15:14:04;21.50;96.60
15355;DHT22;7777;52.254;9.618;2023-05-08T15:16:31;21.40;96.40
15355;DHT22;7777;52.254;9.618;2023-05-08T15:18:56;21.40;96.70
15355;DHT22;7777;52.254;9.618;2023-05-08T15:21:22;21.30;96.30
15355;DHT22;7777;52.254;9.618;2023-05-08T15:23:57;21.30;96.40
15355;DHT22;7777;52.254;9.618;2023-05-08T15:26:23;21.30;96.40
15355;DHT22;7777;52.254;9.618;2023-05-08T15:28:48;21.30;96.60
15355;DHT22;7777;52.254;9.618;2023-05-08T15:31:15;21.30;97.10
15355;DHT22;7777;52.254;9.618;2023-05-08T15:33:47;21.30;95.90
15355;DHT22;7777;52.254;9.618;2023-05-08T15:36:13;21.20;96.20
15355;DHT22;7777;52.254;9.618;2023-05-08T15:38:39;21.20;95.80
15355;DHT22;7777;52.254;9.618;2023-05-08T15:41:06;21.10;96.30
15355;DHT22;7777;52.254;9.618;2023-05-08T15:43:35;21.10;95.80
15355;DHT22;7777;52.254;9.618;2023-05-08T15:46:01;21.00;96.00
15355;DHT22;7777;52.254;9.618;2023-05-08T15:48:27;21.00;96.20
15355;DHT22;7777;52.254;9.618;2023-05-08T15:50:53;21.00;96.20
15355;DHT22;7777;52.254;9.618;2023-05-08T15:53:21;21.00;96.40
15355;DHT22;7777;52.254;9.618;2023-05-08T15:56:05;21.00;96.40
15355;DHT22;7777;52.254;9.618;2023-05-08T15:58:31;20.90;95.50
15355;DHT22;7777;52.254;9.618;2023-05-08T16:00:57;20.90;96.40
15355;DHT22;7777;52.254;9.618;2023-05-08T16:03:24;20.90;96.10
15355;DHT22;7777;52.254;9.618;2023-05-08T16:05:50;20.80;96.20
15355;DHT22;7777;52.254;9.618;2023-05-08T16:08:16;20.80;96.40
15355;DHT22;7777;52.254;9.618;2023-05-08T16:10:41;20.80;96.30
15355;DHT22;7777;52.254;9.618;2023-05-08T16:13:18;20.70;96.20
15355;DHT22;7777;52.254;9.618;2023-05-08T16:15:44;20.70;96.00
15355;DHT22;7777;52.254;9.618;2023-05-08T16:18:10;20.70;96.80
15355;DHT22;7777;52.254;9.618;2023-05-08T16:20:39;20.70;95.90
15355;DHT22;7777;52.254;9.618;2023-05-08T16:23:06;20.60;95.80
15355;DHT22;7777;52.254;9.618;2023-05-08T16:25:31;20.60;95.80
15355;DHT22;7777;52.254;9.618;2023-05-08T16:27:57;20.60;96.20
15355;DHT22;7777;52.254;9.618;2023-05-08T16:30:23;20.60;96.20
15355;DHT22;7777;52.254;9.618;2023-05-08T16:32:49;20.50;96.30
15355;DHT22;7777;52.254;9.618;2023-05-08T16:35:15;20.50;96.40
15355;DHT22;7777;52.254;9.618;2023-05-08T16:37:41;20.60;96.70
15355;DHT22;7777;52.254;9.618;2023-05-08T16:40:08;20.50;96.20
15355;DHT22;7777;52.254;9.618;2023-05-08T16:42:34;20.50;96.10
15355;DHT22;7777;52.254;9.618;2023-05-08T16:45:02;20.40;95.50
15355;DHT22;7777;52.254;9.618;2023-05-08T16:47:28;20.40;95.90
15355;DHT22;7777;52.254;9.618;2023-05-08T16:49:54;20.30;95.70
15355;DHT22;7777;52.254;9.618;2023-05-08T16:52:20;20.30;96.00
15355;DHT22;7777;52.254;9.618;2023-05-08T16:54:46;20.30;95.80
15355;DHT22;7777;52.254;9.618;2023-05-08T16:57:11;20.30;95.70
15355;DHT22;7777;52.254;9.618;2023-05-08T16:59:37;20.20;95.70
15355;DHT22;7777;52.254;9.618;2023-05-08T17:02:03;20.20;95.30
15355;DHT22;7777;52.254;9.618;2023-05-08T17:04:29;20.10;95.50
15355;DHT22;7777;52.254;9.618;2023-05-08T17:06:54;20.10;95.30
15355;DHT22;7777;52.254;9.618;2023-05-08T17:09:20;20.00;95.70
15355;DHT22;7777;52.254;9.618;2023-05-08T17:11:46;20.00;95.80
15355;DHT22;7777;52.254;9.618;2023-05-08T17:14:12;20.00;95.80
15355;DHT22;7777;52.254;9.618;2023-05-08T17:16:37;20.00;95.50
15355;DHT22;7777;52.254;9.618;2023-05-08T17:19:03;20.00;95.80
15355;DHT22;7777;52.254;9.618;2023-05-08T17:21:32;19.90;95.70
15355;DHT22;7777;52.254;9.618;2023-05-08T17:23:59;19.90;95.60
15355;DHT22;7777;52.254;9.618;2023-05-08T17:26:25;19.80;95.20
15355;DHT22;7777;52.254;9.618;2023-05-08T17:28:52;19.80;95.80
15355;DHT22;7777;52.254;9.618;2023-05-08T17:31:18;19.70;95.60
15355;DHT22;7777;52.254;9.618;2023-05-08T17:33:44;19.70;95.90
15355;DHT22;7777;52.254;9.618;2023-05-08T17:36:10;19.60;95.30
15355;DHT22;7777;52.254;9.618;2023-05-08T17:38:36;19.60;95.30
15355;DHT22;7777;52.254;9.618;2023-05-08T17:41:08;19.50;95.70
15355;DHT22;7777;52.254;9.618;2023-05-08T17:43:34;19.50;95.20
15355;DHT22;7777;52.254;9.618;2023-05-08T17:46:00;19.40;95.50
15355;DHT22;7777;52.254;9.618;2023-05-08T17:48:25;19.40;95.70
15355;DHT22;7777;52.254;9.618;2023-05-08T17:50:52;19.30;95.40
15355;DHT22;7777;52.254;9.618;2023-05-08T17:53:18;19.30;95.70
15355;DHT22;7777;52.254;9.618;2023-05-08T17:55:44;19.30;95.60
15355;DHT22;7777;52.254;9.618;2023-05-08T17:58:10;19.20;95.50
15355;DHT22;7777;52.254;9.618;2023-05-08T18:00:36;19.20;95.80
15355;DHT22;7777;52.254;9.618;2023-05-08T18:03:05;19.20;95.60
15355;DHT22;7777;52.254;9.618;2023-05-08T18:05:31;19.10;95.90
15355;DHT22;7777;52.254;9.618;2023-05-08T18:07:56;19.10;95.60
15355;DHT22;7777;52.254;9.618;2023-05-08T18:10:22;19.00;95.40
15355;DHT22;7777;52.254;9.618;2023-05-08T18:12:53;19.00;95.90
15355;DHT22;7777;52.254;9.618;2023-05-08T18:15:19;18.90;95.60
15355;DHT22;7777;52.254;9.618;2023-05-08T18:17:45;18.80;95.50
15355;DHT22;7777;52.254;9.618;2023-05-08T18:20:11;18.80;95.70
15355;DHT22;7777;52.254;9.618;2023-05-08T18:22:36;18.70;95.80
15355;DHT22;7777;52.254;9.618;2023-05-08T18:25:02;18.70;95.80
15355;DHT22;7777;52.254;9.618;2023-05-08T18:27:28;18.60;95.60
15355;DHT22;7777;52.254;9.618;2023-05-08T18:29:57;18.50;95.60
15355;DHT22;7777;52.254;9.618;2023-05-08T18:32:23;18.50;95.70
15355;DHT22;7777;52.254;9.618;2023-05-08T18:34:49;18.40;95.70
15355;DHT22;7777;52.254;9.618;2023-05-08T18:37:14;18.40;95.60
15355;DHT22;7777;52.254;9.618;2023-05-08T18:39:40;18.30;95.60
15355;DHT22;7777;52.254;9.618;2023-05-08T18:42:06;18.20;95.90
15355;DHT22;7777;52.254;9.618;2023-05-08T18:44:32;18.20;95.60
15355;DHT22;7777;52.254;9.618;2023-05-08T18:46:57;18.10;95.80
15355;DHT22;7777;52.254;9.618;2023-05-08T18:49:23;18.10;95.80
15355;DHT22;7777;52.254;9.618;2023-05-08T18:51:49;18.00;95.70
15355;DHT22;7777;52.254;9.618;2023-05-08T18:54:15;17.90;95.80
15355;DHT22;7777;52.254;9.618;2023-05-08T18:56:41;17.80;95.80
15355;DHT22;7777;52.254;9.618;2023-05-08T18:59:06;17.90;96.00
15355;DHT22;7777;52.254;9.618;2023-05-08T19:01:33;17.80;96.20
15355;DHT22;7777;52.254;9.618;2023-05-08T19:03:58;17.80;96.60
15355;DHT22;7777;52.254;9.618;2023-05-08T19:06:24;17.70;96.50
15355;DHT22;7777;52.254;9.618;2023-05-08T19:08:50;17.70;96.50
15355;DHT22;7777;52.254;9.618;2023-05-08T19:11:17;17.60;96.70
15355;DHT22;7777;52.254;9.618;2023-05-08T19:13:42;17.50;96.70
15355;DHT22;7777;52.254;9.618;2023-05-08T19:16:08;17.50;96.70
15355;DHT22;7777;52.254;9.618;2023-05-08T19:18:34;17.40;96.90
15355;DHT22;7777;52.254;9.618;2023-05-08T19:21:00;17.30;96.90
15355;DHT22;7777;52.254;9.618;2023-05-08T19:23:26;17.20;96.90
15355;DHT22;7777;52.254;9.618;2023-05-08T19:25:52;17.20;96.90
15355;DHT22;7777;52.254;9.618;2023-05-08T19:28:17;17.10;96.80
15355;DHT22;7777;52.254;9.618;2023-05-08T19:30:43;17.10;96.80
15355;DHT22;7777;52.254;9.618;2023-05-08T19:33:09;17.00;96.80
15355;DHT22;7777;52.254;9.618;2023-05-08T19:35:34;16.90;96.80
15355;DHT22;7777;52.254;9.618;2023-05-08T19:38:00;16.80;96.80
15355;DHT22;7777;52.254;9.618;2023-05-08T19:40:26;16.80;96.80
15355;DHT22;7777;52.254;9.618;2023-05-08T19:42:52;16.70;96.70
15355;DHT22;7777;52.254;9.618;2023-05-08T19:45:17;16.60;96.80
15355;DHT22;7777;52.254;9.618;2023-05-08T19:47:47;16.60;96.80
15355;DHT22;7777;52.254;9.618;2023-05-08T19:50:13;16.50;96.80
15355;DHT22;7777;52.254;9.618;2023-05-08T19:52:43;16.50;96.90
15355;DHT22;7777;52.254;9.618;2023-05-08T19:55:11;16.40;97.00
15355;DHT22;7777;52.254;9.618;2023-05-08T19:57:38;16.40;96.90
15355;DHT22;7777;52.254;9.618;2023-05-08T20:00:04;16.30;96.90
15355;DHT22;7777;52.254;9.618;2023-05-08T20:02:31;16.30;97.00
15355;DHT22;7777;52.254;9.618;2023-05-08T20:04:56;16.30;97.00
15355;DHT22;7777;52.254;9.618;2023-05-08T20:07:22;16.20;97.10
15355;DHT22;7777;52.254;9.618;2023-05-08T20:09:48;16.20;97.20
15355;DHT22;7777;52.254;9.618;2023-05-08T20:12:13;16.20;97.30
15355;DHT22;7777;52.254;9.618;2023-05-08T20:14:39;16.10;97.20
15355;DHT22;7777;52.254;9.618;2023-05-08T20:17:05;16.10;97.30